Аэропорт: Внуково. Москва

ICAO: UUWW

METAR:
2022-01-28 09:00:00
UUWW 280900Z 15006MPS 2300 -SN FEW011 BKN030 M06/M08 Q1002 R19/491037 TEMPO 1000 SHSN BKN010CB
METAR:
2022-01-28 07:50:00
TAF UUWW 280750Z 2809/2909 15005G10MPS 2500 -SN OVC008 TXM03/2909Z TNM06/2809Z TEMPO 2809/2818 15010G15MPS 0700 +SHSN BKN004 BKN012CB PROB40 TEMPO 2809/2818 -FZRA BKN010CB TEMPO 2818/2909 0900 +SHSN -FZRA OVC003 BKN012CB BECMG 2821/2823 12003MPS